ΕΜΥ, Εθνική Μετεωρολογική Υπηρεσία - Δελτία Καιρού, Προγνώσεις

ΑΕΡΟΝΑΥΤΙΛΙΑ

GREEK AIRPORTS CODES

LGSA 120820Z VRB03KT 9999 FEW018TCU SCT080 15/10 Q1003=

EUROPEAN AIRPORTS CODES

LFPO 120830Z 20010KT 160V220 9999 BKN005 03/02 Q1005 NOSIG=